Time;durP1;ratioP1;P1;durP2;ratioP2;P2;SDS_P1;SDS_P2;PMS_P1;PMS_P2;Temp;Humidity;BMP_temperature;BMP_pressure;BME280_temperature;BME280_humidity;BME280_pressure;Samples;Min_cycle;Max_cycle;Signal;HPM_P1;HPM_P2
2023/09/08 00:02:27;;;;;;;6.85;5.90;;;;;;;19.57;100.00;101677.53;5069988;28;20035;-36
2023/09/08 00:04:53;;;;;;;6.72;4.88;;;;;;;19.66;100.00;101658.63;5069534;28;20024;-36
2023/09/08 00:07:18;;;;;;;6.22;5.32;;;;;;;19.56;100.00;101651.19;5069587;28;20036;-37
2023/09/08 00:09:44;;;;;;;6.07;5.45;;;;;;;19.60;100.00;101657.81;5059899;28;20056;-37
2023/09/08 00:12:09;;;;;;;9.30;5.22;;;;;;;19.66;99.34;101662.19;5056073;28;20087;-37
2023/09/08 00:14:34;;;;;;;6.45;5.78;;;;;;;19.67;100.00;101666.63;5056236;28;20033;-37
2023/09/08 00:17:00;;;;;;;6.90;5.57;;;;;;;19.70;100.00;101665.22;5055832;28;20025;-37
2023/09/08 00:19:25;;;;;;;6.22;5.57;;;;;;;19.52;100.00;101658.31;5055926;28;20057;-37
2023/09/08 00:21:51;;;;;;;6.93;4.97;;;;;;;19.58;99.78;101668.22;5056439;28;20358;-37
2023/09/08 00:24:17;;;;;;;6.45;5.47;;;;;;;19.54;99.99;101667.91;5056631;28;20030;-37
2023/09/08 00:26:43;;;;;;;7.90;5.85;;;;;;;19.41;100.00;101679.41;5056581;28;20044;-37
2023/09/08 00:29:08;;;;;;;6.78;6.07;;;;;;;19.47;100.00;101677.50;5055958;28;20029;-37
2023/09/08 00:31:33;;;;;;;7.82;5.70;;;;;;;19.37;100.00;101682.94;5056473;28;20029;-37
2023/09/08 00:33:59;;;;;;;5.82;5.22;;;;;;;19.44;100.00;101672.56;5054636;28;20033;-37
2023/09/08 00:36:24;;;;;;;6.00;5.35;;;;;;;19.35;100.00;101676.91;5056156;28;20040;-37
2023/09/08 00:38:49;;;;;;;6.07;5.47;;;;;;;19.30;100.00;101673.06;5055450;28;20034;-37
2023/09/08 00:41:15;;;;;;;5.93;5.22;;;;;;;19.41;100.00;101676.66;5055535;28;20397;-37
2023/09/08 00:43:40;;;;;;;7.28;5.00;;;;;;;19.34;100.00;101669.78;5055686;28;20385;-37
2023/09/08 00:46:06;;;;;;;6.47;5.70;;;;;;;19.26;100.00;101677.44;5055653;28;20067;-37
2023/09/08 00:48:32;;;;;;;7.13;5.85;;;;;;;19.24;100.00;101659.63;5055875;28;20044;-37
2023/09/08 00:50:57;;;;;;;7.45;6.15;;;;;;;19.23;100.00;101669.75;5055250;28;20454;-37
2023/09/08 00:53:23;;;;;;;9.45;6.32;;;;;;;19.11;100.00;101665.59;5055528;28;20036;-37
2023/09/08 00:55:50;;;;;;;7.70;6.25;;;;;;;19.12;100.00;101675.47;5055441;28;20035;-37
2023/09/08 00:58:15;;;;;;;6.72;5.43;;;;;;;19.22;100.00;101670.00;5055964;28;20523;-37
2023/09/08 01:00:41;;;;;;;6.90;5.82;;;;;;;19.17;100.00;101667.25;5055044;28;20025;-37
2023/09/08 01:03:06;;;;;;;7.18;6.45;;;;;;;19.13;100.00;101669.72;5056174;28;20033;-37
2023/09/08 01:05:32;;;;;;;6.85;6.15;;;;;;;19.15;100.00;101670.28;5055237;28;20513;-37
2023/09/08 01:07:59;;;;;;;7.88;5.82;;;;;;;19.01;100.00;101658.97;5054932;28;20036;-37
2023/09/08 01:10:25;;;;;;;8.57;6.35;;;;;;;19.03;100.00;101661.44;5055136;28;20036;-37
2023/09/08 01:12:50;;;;;;;;;;;;;;;19.23;100.00;101668.94;5055858;28;20029;-37
2023/09/08 01:15:15;;;;;;;7.07;6.38;;;;;;;18.92;100.00;101651.53;5055130;28;20312;-37
2023/09/08 01:17:41;;;;;;;9.10;6.07;;;;;;;18.96;100.00;101660.88;5055067;28;20025;-37
2023/09/08 01:20:10;;;;;;;;;;;;;;;19.15;100.00;101667.53;5055185;28;20032;-37
2023/09/08 01:23:01;;;;;;;6.22;5.63;;;;;;;18.95;100.00;101664.72;5054851;28;20297;-37
2023/09/08 01:25:28;;;;;;;7.30;6.60;;;;;;;18.87;100.00;101665.22;5055557;28;20083;-37
2023/09/08 01:27:55;;;;;;;7.55;6.60;;;;;;;18.93;100.00;101666.88;5055433;28;20025;-37
2023/09/08 01:30:23;;;;;;;7.25;5.82;;;;;;;18.81;100.00;101663.53;5054840;28;20040;-37
2023/09/08 01:32:49;;;;;;;9.68;6.18;;;;;;;18.85;100.00;101670.16;5054573;28;20094;-37
2023/09/08 01:35:15;;;;;;;7.80;6.15;;;;;;;18.84;100.00;101669.31;5054679;28;20031;-37
2023/09/08 01:37:49;;;;;;;7.78;6.65;;;;;;;18.80;100.00;101667.38;5054852;28;20029;-37
2023/09/08 01:40:15;;;;;;;8.80;6.43;;;;;;;18.74;100.00;101670.09;5054930;28;20032;-37
2023/09/08 01:42:41;;;;;;;6.50;5.90;;;;;;;18.60;100.00;101660.66;5055106;28;20477;-37
2023/09/08 01:45:07;;;;;;;;;;;;;;;18.86;100.00;101674.53;5054876;28;20029;-37
2023/09/08 01:47:32;;;;;;;8.82;6.80;;;;;;;18.60;100.00;101674.34;5054489;28;19908;-37
2023/09/08 01:49:58;;;;;;;8.40;6.30;;;;;;;18.47;100.00;101658.38;5054372;28;20028;-37
2023/09/08 01:52:24;;;;;;;;;;;;;;;18.73;100.00;101681.31;5055147;28;20036;-37
2023/09/08 01:54:49;;;;;;;8.50;5.55;;;;;;;18.65;100.00;101674.38;5054918;28;19916;-37
2023/09/08 01:57:14;;;;;;;;;;;;;;;18.76;100.00;101672.56;5054676;28;20052;-37
2023/09/08 01:59:39;;;;;;;7.87;6.30;;;;;;;18.67;100.00;101663.16;5054280;28;19913;-37
2023/09/08 02:02:05;;;;;;;;;;;;;;;18.79;100.00;101666.56;5055201;28;20277;-37
2023/09/08 02:04:30;;;;;;;6.78;6.18;;;;;;;18.66;100.00;101670.56;5054416;28;19913;-37
2023/09/08 02:06:55;;;;;;;7.10;6.40;;;;;;;18.61;100.00;101658.75;5054449;28;20036;-37
2023/09/08 02:09:22;;;;;;;8.40;7.20;;;;;;;18.51;100.00;101665.00;5054079;28;20439;-37
2023/09/08 02:11:47;;;;;;;8.32;6.90;;;;;;;18.46;100.00;101673.16;5054399;28;20040;-37
2023/09/08 02:14:13;;;;;;;;;;;;;;;18.63;100.00;101668.34;5054482;28;20025;-37
2023/09/08 02:16:39;;;;;;;6.72;6.00;;;;;;;18.50;100.00;101660.59;5053925;28;19912;-37
2023/09/08 02:19:05;;;;;;;10.93;6.88;;;;;;;18.37;100.00;101674.75;5053829;28;20033;-37
2023/09/08 02:21:30;;;;;;;;;;;;;;;18.55;100.00;101663.38;5053426;28;20028;-37
2023/09/08 02:23:55;;;;;;;6.80;6.10;;;;;;;18.45;100.00;101660.56;5053870;28;19913;-37
2023/09/08 02:26:20;;;;;;;;;;;;;;;18.53;100.00;101654.56;5054297;28;20258;-37
2023/09/08 02:28:46;;;;;;;7.15;6.47;;;;;;;18.28;100.00;101656.06;5053545;28;19912;-37
2023/09/08 02:31:11;;;;;;;;;;;;;;;18.49;100.00;101656.19;5054138;28;20032;-36
2023/09/08 02:33:37;;;;;;;7.82;6.75;;;;;;;18.22;100.00;101650.81;5053515;28;20295;-37
2023/09/08 02:36:05;;;;;;;8.15;7.00;;;;;;;18.19;100.00;101652.16;5053684;28;20071;-37
2023/09/08 02:38:30;;;;;;;7.70;6.80;;;;;;;18.15;100.00;101647.47;5053827;28;20086;-36
2023/09/08 02:40:56;;;;;;;;;;;;;;;18.36;100.00;101642.97;5054059;28;20025;-37
2023/09/08 02:43:21;;;;;;;9.17;6.83;;;;;;;18.23;100.00;101638.78;5053649;28;20357;-37
2023/09/08 02:45:46;;;;;;;;;;;;;;;18.35;100.00;101655.00;5053945;28;20272;-37
2023/09/08 02:48:12;;;;;;;11.57;7.57;;;;;;;18.08;100.00;101655.91;5054346;28;20000;-37
2023/09/08 02:50:38;;;;;;;9.30;7.60;;;;;;;17.98;100.00;101659.38;5053282;28;20063;-37
2023/09/08 02:53:03;;;;;;;;;;;;;;;18.21;100.00;101660.94;5053335;28;20039;-37
2023/09/08 02:55:29;;;;;;;9.60;6.43;;;;;;;18.01;100.00;101652.59;5053629;28;20003;-37
2023/09/08 02:57:56;;;;;;;7.25;6.55;;;;;;;18.10;100.00;101659.19;5053000;28;20052;-36
2023/09/08 03:00:21;;;;;;;8.43;7.57;;;;;;;17.98;100.00;101658.56;5053192;28;20025;-36
2023/09/08 03:02:47;;;;;;;;;;;;;;;18.16;100.00;101660.91;5053547;28;20029;-37
2023/09/08 03:05:12;;;;;;;8.57;6.93;;;;;;;17.95;100.00;101653.59;5053688;28;20004;-37
2023/09/08 03:07:38;;;;;;;;;;;;;;;18.14;100.00;101648.56;5053559;28;20065;-37
2023/09/08 03:10:06;;;;;;;8.68;7.28;;;;;;;17.88;100.00;101653.81;5053593;28;20077;-36
2023/09/08 03:12:31;;;;;;;8.65;7.75;;;;;;;17.89;100.00;101652.72;5053010;28;20036;-37
2023/09/08 03:14:57;;;;;;;;;;;;;;;18.05;100.00;101650.94;5053923;28;20029;-37
2023/09/08 03:17:22;;;;;;;7.38;6.68;;;;;;;17.92;100.00;101657.69;5053000;28;19927;-36
2023/09/08 03:19:48;;;;;;;6.97;6.22;;;;;;;17.96;100.00;101658.00;5053244;28;20032;-37
2023/09/08 03:22:13;;;;;;;;;;;;;;;18.05;100.00;101655.59;5053753;28;20037;-36
2023/09/08 03:24:38;;;;;;;7.93;7.13;;;;;;;17.88;100.00;101656.56;5053742;28;19954;-36
2023/09/08 03:27:04;;;;;;;;;;;;;;;17.99;100.00;101652.81;5053692;28;20033;-36
2023/09/08 03:29:29;;;;;;;7.40;6.70;;;;;;;17.80;100.00;101639.78;5053083;28;20306;-36
2023/09/08 03:31:54;;;;;;;;;;;;;;;17.98;100.00;101650.34;5053559;28;20079;-36
2023/09/08 03:34:20;;;;;;;8.43;7.53;;;;;;;17.78;100.00;101650.19;5052797;28;19908;-37
2023/09/08 03:36:46;;;;;;;;;;;;;;;17.93;100.00;101650.31;5053797;28;20323;-35
2023/09/08 03:39:11;;;;;;;9.82;7.28;;;;;;;17.69;100.00;101641.59;5052656;28;19913;-36
2023/09/08 03:41:36;;;;;;;;;;;;;;;17.88;100.00;101644.78;5053510;28;20059;-35
2023/09/08 03:44:02;;;;;;;8.80;7.87;;;;;;;17.67;100.00;101646.50;5053406;28;19908;-36
2023/09/08 03:46:27;;;;;;;;;;;;;;;17.82;100.00;101643.94;5057780;28;20778;-36
2023/09/08 03:48:58;;;;;;;9.13;7.47;;;;;;;17.67;100.00;101639.13;5056418;28;20436;-36
2023/09/08 03:51:24;;;;;;;7.57;6.82;;;;;;;17.56;100.00;101626.41;5057001;28;20358;-36
2023/09/08 03:53:49;;;;;;;;;;;;;;;17.77;100.00;101637.59;5056840;28;20029;-36
2023/09/08 03:56:14;;;;;;;9.63;8.13;;;;;;;17.62;100.00;101638.25;5056400;28;19909;-36
2023/09/08 03:58:39;;;;;;;;;;;;;;;17.76;100.00;101642.22;5057517;28;20768;-36
2023/09/08 04:01:05;;;;;;;12.17;7.93;;;;;;;17.64;100.00;101641.53;5056827;28;20413;-37
2023/09/08 04:03:30;;;;;;;;;;;;;;;17.76;100.00;101644.94;5057261;28;20786;-36
2023/09/08 04:05:55;;;;;;;8.63;7.90;;;;;;;17.57;100.00;101639.03;5056953;28;19912;-37
2023/09/08 04:08:21;;;;;;;8.55;7.65;;;;;;;17.53;100.00;101632.41;5056666;28;20044;-37
2023/09/08 04:10:46;;;;;;;8.90;7.72;;;;;;;17.50;100.00;101627.44;5055999;28;20025;-36
2023/09/08 04:13:11;;;;;;;9.75;8.45;;;;;;;17.43;100.00;101635.03;5055999;28;20025;-36
2023/09/08 04:15:36;;;;;;;;;;;;;;;17.62;100.00;101636.34;5056435;28;20029;-36
2023/09/08 04:18:02;;;;;;;10.95;8.68;;;;;;;17.44;100.00;101629.31;5056154;28;19999;-36
2023/09/08 04:20:28;;;;;;;9.32;8.48;;;;;;;17.44;100.00;101631.22;5056385;28;20032;-37
2023/09/08 04:22:53;;;;;;;;;;;;;;;17.60;100.00;101624.81;5056581;28;20029;-36
2023/09/08 04:25:18;;;;;;;9.52;7.38;;;;;;;17.51;100.00;101620.88;5056340;28;19963;-36
2023/09/08 04:27:44;;;;;;;;;;;;;;;17.59;100.00;101631.38;5056490;28;20481;-36
2023/09/08 04:30:10;;;;;;;11.02;8.25;;;;;;;17.40;100.00;101616.41;5055971;28;19948;-36
2023/09/08 04:32:37;;;;;;;;;;;;;;;17.56;100.00;101628.31;5056369;28;20432;-36
2023/09/08 04:35:03;;;;;;;8.27;7.53;;;;;;;17.32;100.00;101625.06;5055542;28;19908;-36
2023/09/08 04:37:30;;;;;;;;;;;;;;;17.51;100.00;101627.19;5056469;28;20032;-36
2023/09/08 04:39:55;;;;;;;10.57;8.20;;;;;;;17.25;100.00;101620.63;5055491;28;20415;-36
2023/09/08 04:42:21;;;;;;;9.55;8.02;;;;;;;17.27;100.00;101622.28;5055492;28;20029;-36
2023/09/08 04:44:46;;;;;;;;;;;;;;;17.46;100.00;101629.03;5056139;28;20458;-36
2023/09/08 04:47:11;;;;;;;9.85;8.85;;;;;;;17.31;100.00;101621.50;5056175;28;19913;-36
2023/09/08 04:49:37;;;;;;;;;;;;;;;17.42;100.00;101627.91;5055707;28;20473;-37
2023/09/08 04:52:03;;;;;;;9.75;8.13;;;;;;;17.23;100.00;101622.81;5055663;28;20415;-36
2023/09/08 04:54:28;;;;;;;;;;;;;;;17.39;100.00;101632.00;5056487;28;20039;-37
2023/09/08 04:56:54;;;;;;;9.18;8.38;;;;;;;17.21;100.00;101630.41;5055682;28;19919;-37
2023/09/08 04:59:19;;;;;;;11.75;8.77;;;;;;;17.12;100.00;101631.13;5055886;28;20024;-37
2023/09/08 05:01:45;;;;;;;;;;;;;;;17.32;100.00;101627.78;5056398;28;20029;-37
2023/09/08 05:04:11;;;;;;;27.40;10.23;;;;;;;17.11;100.00;101630.31;5055342;28;19919;-37
2023/09/08 05:06:36;;;;;;;;;;;;;;;17.32;100.00;101633.25;5055779;28;20029;-37
2023/09/08 05:09:01;;;;;;;10.03;9.03;;;;;;;17.16;100.00;101644.03;5055059;28;19908;-37
2023/09/08 05:11:27;;;;;;;;;;;;;;;17.31;100.00;101631.63;5056240;28;20266;-37
2023/09/08 05:13:53;;;;;;;15.00;8.13;;;;;;;17.22;100.00;101631.25;5055132;28;20281;-37
2023/09/08 05:16:25;;;;;;;;;;;;;;;17.33;100.00;101635.75;5055505;28;20075;-37
2023/09/08 05:18:51;;;;;;;9.85;8.85;;;;;;;17.14;100.00;101638.00;5054923;28;20356;-37
2023/09/08 05:21:16;;;;;;;;;;;;;;;17.31;100.00;101634.34;5055399;28;20025;-37
2023/09/08 05:23:41;;;;;;;10.03;9.07;;;;;;;17.11;100.00;101646.69;5055233;28;19909;-36
2023/09/08 05:26:06;;;;;;;;;;;;;;;17.26;100.00;101643.31;5055887;28;20284;-36
2023/09/08 05:28:32;;;;;;;12.30;9.30;;;;;;;17.19;100.00;101643.53;5055164;28;19912;-36
2023/09/08 05:30:57;;;;;;;;;;;;;;;17.36;100.00;101637.97;5055224;28;20354;-36
2023/09/08 05:33:22;;;;;;;9.63;8.73;;;;;;;17.37;100.00;101642.38;5055063;28;19909;-36
2023/09/08 05:35:47;;;;;;;;;;;;;;;17.51;100.00;101650.97;5055109;28;20282;-36
2023/09/08 05:38:13;;;;;;;10.17;9.17;;;;;;;17.45;100.00;101646.53;5054938;28;19913;-36
2023/09/08 05:40:38;;;;;;;;;;;;;;;17.62;100.00;101644.53;5054669;28;20307;-36
2023/09/08 05:43:04;;;;;;;11.30;8.88;;;;;;;17.58;100.00;101653.53;5055162;28;20345;-36
2023/09/08 05:45:31;;;;;;;;;;;;;;;17.75;100.00;101652.34;5055218;28;20025;-37
2023/09/08 05:47:56;;;;;;;;;;;;;;;17.84;100.00;101646.41;5055004;28;20343;-37
2023/09/08 05:50:22;;;;;;;9.40;8.40;;;;;;;17.83;100.00;101652.97;5054433;28;19912;-36
2023/09/08 05:52:48;;;;;;;;;;;;;;;17.95;100.00;101651.69;5054880;28;20353;-36
2023/09/08 05:55:13;;;;;;;10.10;9.07;;;;;;;17.93;100.00;101658.53;5054333;28;19908;-36
2023/09/08 05:57:38;;;;;;;;;;;;;;;18.09;100.00;101652.06;5054613;28;20453;-36
2023/09/08 06:00:04;;;;;;;10.37;9.20;;;;;;;17.92;100.00;101640.47;5054200;28;20285;-36
2023/09/08 06:02:29;;;;;;;;;;;;;;;18.18;100.00;101655.97;5054381;28;20256;-36
2023/09/08 06:04:56;;;;;;;9.80;8.90;;;;;;;18.08;100.00;101647.69;5054179;28;19995;-36
2023/09/08 06:07:21;;;;;;;11.20;9.98;;;;;;;18.12;100.00;101659.78;5054191;28;20346;-37
2023/09/08 06:09:47;;;;;;;;;;;;;;;18.30;100.00;101654.97;5054232;28;20163;-37
2023/09/08 06:12:12;;;;;;;9.83;8.93;;;;;;;18.25;100.00;101662.09;5054056;28;19919;-37
2023/09/08 06:14:37;;;;;;;;;;;;;;;18.40;100.00;101661.38;5053193;28;20291;-36
2023/09/08 06:17:03;;;;;;;9.60;8.70;;;;;;;18.35;100.00;101660.47;5054251;28;19919;-37
2023/09/08 06:19:28;;;;;;;;;;;;;;;18.51;100.00;101659.50;5054067;28;20306;-37
2023/09/08 06:21:54;;;;;;;10.83;9.27;;;;;;;18.44;100.00;101661.63;5053921;28;19986;-36
2023/09/08 06:24:19;;;;;;;;;;;;;;;18.62;100.00;101669.44;5054823;28;20268;-37
2023/09/08 06:26:44;;;;;;;12.17;8.87;;;;;;;18.56;100.00;101653.25;5069923;28;19936;-36
2023/09/08 06:29:10;;;;;;;;;;;;;;;18.75;100.00;101666.25;5054265;28;20267;-36
2023/09/08 06:31:35;;;;;;;10.38;8.82;;;;;;;18.71;100.00;101659.66;5053840;28;19915;-36
2023/09/08 06:34:01;;;;;;;11.32;9.60;;;;;;;18.74;100.00;101670.09;5054287;28;20355;-36
2023/09/08 06:36:26;;;;;;;13.38;9.57;;;;;;;18.78;100.00;101671.19;5053992;28;20025;-36
2023/09/08 06:38:51;;;;;;;12.00;9.52;;;;;;;18.81;100.00;101675.31;5053500;28;20032;-37
2023/09/08 06:41:17;;;;;;;11.02;9.93;;;;;;;18.79;100.00;101669.31;5053936;28;20041;-36
2023/09/08 06:43:42;;;;;;;;;;;;;;;18.98;100.00;101665.00;5054549;28;20029;-37
2023/09/08 06:46:08;;;;;;;10.90;8.60;;;;;;;18.86;100.00;101661.66;5053862;28;20349;-37
2023/09/08 06:48:33;;;;;;;10.80;9.70;;;;;;;18.95;100.00;101664.72;5053835;28;20037;-37
2023/09/08 06:50:59;;;;;;;9.45;8.55;;;;;;;19.09;100.00;101671.34;5053963;28;20458;-36
2023/09/08 06:53:24;;;;;;;10.77;9.70;;;;;;;19.14;100.00;101670.56;5053371;28;20141;-36
2023/09/08 06:55:49;;;;;;;10.05;9.05;;;;;;;19.22;100.00;101681.81;5053107;28;20036;-36
2023/09/08 06:58:15;;;;;;;11.25;10.07;;;;;;;19.19;100.00;101674.13;5053268;28;20051;-36
2023/09/08 07:00:41;;;;;;;10.20;9.25;;;;;;;19.34;100.00;101686.25;5053448;28;20021;-37
2023/09/08 07:03:07;;;;;;;11.93;9.80;;;;;;;19.39;100.00;101680.78;5053139;28;20033;-36
2023/09/08 07:05:33;;;;;;;11.15;10.15;;;;;;;19.43;100.00;101684.63;5053895;28;20029;-36
2023/09/08 07:07:59;;;;;;;;;;;;;;;19.61;100.00;101681.41;5053589;28;20051;-36
2023/09/08 07:10:24;;;;;;;11.53;10.53;;;;;;;19.57;100.00;101674.81;5053398;28;19978;-36
2023/09/08 07:12:49;;;;;;;11.48;10.15;;;;;;;19.71;100.00;101683.34;5053570;28;20272;-36
2023/09/08 07:15:15;;;;;;;12.98;10.57;;;;;;;19.63;100.00;101656.47;5053813;28;20029;-37
2023/09/08 07:17:41;;;;;;;11.10;10.13;;;;;;;19.83;100.00;101680.34;5053515;28;20483;-37
2023/09/08 07:20:07;;;;;;;10.15;9.25;;;;;;;19.90;100.00;101673.47;5055820;28;20036;-37
2023/09/08 07:22:33;;;;;;;11.18;9.68;;;;;;;20.00;100.00;101686.38;5057069;28;20100;-37
2023/09/08 07:24:58;;;;;;;11.45;10.07;;;;;;;19.97;100.00;101670.50;5057210;28;20132;-37
2023/09/08 07:27:24;;;;;;;13.32;9.57;;;;;;;20.05;100.00;101678.16;5057242;28;20521;-37
2023/09/08 07:29:49;;;;;;;11.43;10.13;;;;;;;20.18;100.00;101677.63;5057914;28;20021;-37
2023/09/08 07:32:15;;;;;;;12.40;9.82;;;;;;;20.28;100.00;101693.25;5057377;28;20029;-36
2023/09/08 07:34:41;;;;;;;10.63;9.60;;;;;;;20.33;100.00;101685.84;5056708;28;20033;-36
2023/09/08 07:37:06;;;;;;;10.70;9.75;;;;;;;20.38;100.00;101689.69;5056926;28;20036;-36
2023/09/08 07:39:32;;;;;;;10.93;9.90;;;;;;;20.51;100.00;101681.75;5056956;28;20020;-36
2023/09/08 07:41:58;;;;;;;10.23;9.23;;;;;;;20.52;100.00;101682.56;5057475;28;20365;-37
2023/09/08 07:44:23;;;;;;;11.10;9.40;;;;;;;20.60;100.00;101679.25;5057117;28;20074;-37
2023/09/08 07:46:51;;;;;;;11.85;10.05;;;;;;;20.69;100.00;101680.34;5056849;28;20025;-37
2023/09/08 07:49:18;;;;;;;12.27;10.00;;;;;;;20.80;100.00;101676.44;5056466;28;20036;-37
2023/09/08 07:51:44;;;;;;;10.27;9.30;;;;;;;20.82;100.00;101666.00;5056729;28;20025;-37
2023/09/08 07:54:09;;;;;;;10.52;9.63;;;;;;;21.03;100.00;101675.00;5057547;28;20025;-35
2023/09/08 07:56:34;;;;;;;10.52;9.52;;;;;;;21.12;100.00;101679.91;5057003;28;20071;-36
2023/09/08 07:59:00;;;;;;;10.35;9.35;;;;;;;21.17;100.00;101680.69;5056989;28;20102;-36
2023/09/08 08:01:25;;;;;;;9.88;8.80;;;;;;;21.32;100.00;101672.41;5056295;28;20106;-36
2023/09/08 08:03:50;;;;;;;12.02;9.13;;;;;;;21.28;100.00;101656.75;5057030;28;20029;-38
2023/09/08 08:06:17;;;;;;;10.00;9.00;;;;;;;21.48;100.00;101673.16;5056768;28;20043;-37
2023/09/08 08:08:42;;;;;;;10.10;9.00;;;;;;;21.57;100.00;101670.63;5056431;28;20435;-37
2023/09/08 08:11:17;;;;;;;9.98;9.05;;;;;;;21.63;100.00;101663.97;5056666;28;20021;-37
2023/09/08 08:13:43;;;;;;;10.82;8.73;;;;;;;21.71;100.00;101657.84;5056640;28;20029;-37
2023/09/08 08:16:08;;;;;;;8.88;8.07;;;;;;;21.83;100.00;101658.31;5056576;28;20433;-37
2023/09/08 08:18:33;;;;;;;9.00;7.53;;;;;;;21.93;100.00;101662.13;5056210;28;20029;-37
2023/09/08 08:21:00;;;;;;;9.57;7.38;;;;;;;22.05;100.00;101665.31;5056710;28;20025;-37
2023/09/08 08:23:26;;;;;;;8.38;7.47;;;;;;;22.16;100.00;101657.84;5056960;28;20035;-35
2023/09/08 08:25:51;;;;;;;8.32;6.93;;;;;;;22.27;100.00;101675.91;5056079;28;20119;-36
2023/09/08 08:28:17;;;;;;;11.45;7.88;;;;;;;22.32;100.00;101659.31;5056893;28;20041;-36
2023/09/08 08:30:42;;;;;;;8.38;6.70;;;;;;;22.43;98.80;101666.38;5055294;28;20021;-36
2023/09/08 08:33:08;;;;;;;12.10;7.10;;;;;;;22.60;98.55;101674.19;5056780;28;20062;-37
2023/09/08 08:35:33;;;;;;;7.32;6.63;;;;;;;22.75;99.23;101678.72;5056435;28;20029;-37
2023/09/08 08:38:02;;;;;;;8.05;7.35;;;;;;;22.75;99.06;101675.97;5056638;28;20025;-37
2023/09/08 08:40:28;;;;;;;7.50;6.70;;;;;;;22.92;98.51;101679.09;5056341;28;20428;-37
2023/09/08 08:42:55;;;;;;;7.07;6.38;;;;;;;22.93;100.00;101674.41;5056118;28;20029;-37
2023/09/08 08:45:24;;;;;;;7.35;6.65;;;;;;;23.08;98.69;101683.34;5055664;28;20025;-37
2023/09/08 08:47:50;;;;;;;8.02;5.55;;;;;;;23.19;98.24;101670.22;5055757;28;20079;-37
2023/09/08 08:50:17;;;;;;;6.75;6.15;;;;;;;23.32;100.00;101677.75;5055964;28;20399;-37
2023/09/08 08:52:42;;;;;;;9.55;6.80;;;;;;;23.41;96.57;101675.16;5056472;28;20029;-37
2023/09/08 08:55:08;;;;;;;10.50;6.78;;;;;;;23.51;97.36;101672.25;5055279;28;20480;-37
2023/09/08 08:57:36;;;;;;;6.68;6.07;;;;;;;23.49;95.00;101668.97;5055998;28;20078;-37
2023/09/08 09:00:04;;;;;;;11.40;6.50;;;;;;;23.68;96.35;101674.53;5055191;28;20413;-37
2023/09/08 09:02:29;;;;;;;8.60;6.40;;;;;;;23.80;93.90;101666.59;5055506;28;20068;-37
2023/09/08 09:04:55;;;;;;;6.28;5.70;;;;;;;23.92;95.40;101666.16;5055414;28;20032;-37
2023/09/08 09:07:21;;;;;;;10.93;7.00;;;;;;;24.04;96.21;101671.19;5055920;28;20040;-37
2023/09/08 09:09:46;;;;;;;6.70;6.10;;;;;;;24.13;95.44;101669.38;5055061;28;20025;-37
2023/09/08 09:12:12;;;;;;;9.25;6.75;;;;;;;24.09;93.31;101657.28;5055235;28;20432;-37
2023/09/08 09:14:37;;;;;;;8.32;6.72;;;;;;;24.33;90.49;101669.03;5055449;28;20035;-37
2023/09/08 09:17:05;;;;;;;7.45;6.00;;;;;;;24.28;93.74;101648.94;5055480;28;20033;-37
2023/09/08 09:19:31;;;;;;;8.20;6.35;;;;;;;24.53;90.09;101658.75;5055263;28;20025;-37
2023/09/08 09:21:58;;;;;;;7.43;6.07;;;;;;;24.64;88.56;101665.72;5055093;28;20029;-37
2023/09/08 09:24:32;;;;;;;8.88;6.40;;;;;;;24.70;90.08;101667.28;5054762;28;20041;-37
2023/09/08 09:26:58;;;;;;;6.65;5.80;;;;;;;24.83;88.01;101663.66;5055788;28;20033;-37
2023/09/08 09:29:24;;;;;;;6.97;5.70;;;;;;;24.98;87.66;101661.72;5055434;28;20029;-37
2023/09/08 09:31:56;;;;;;;8.68;5.43;;;;;;;25.16;89.25;101661.63;5054851;28;20159;-37
2023/09/08 09:34:22;;;;;;;9.27;6.30;;;;;;;25.12;85.52;101649.53;5054783;28;20020;-37
2023/09/08 09:36:49;;;;;;;7.22;5.75;;;;;;;25.19;89.72;101660.22;5055595;28;20033;-37
2023/09/08 09:39:19;;;;;;;7.65;6.78;;;;;;;25.24;87.65;101660.09;5054642;28;20043;-37
2023/09/08 09:41:46;;;;;;;10.18;6.43;;;;;;;25.31;87.03;101660.47;5053648;28;20025;-37
2023/09/08 09:44:12;;;;;;;6.63;5.95;;;;;;;25.42;88.68;101650.81;5054611;28;20028;-37
2023/09/08 09:46:37;;;;;;;10.25;6.40;;;;;;;25.52;86.98;101649.75;5055176;28;20420;-37
2023/09/08 09:49:03;;;;;;;11.35;6.75;;;;;;;25.70;83.91;101661.81;5054501;28;20040;-37
2023/09/08 09:51:29;;;;;;;10.90;6.72;;;;;;;25.68;88.36;101659.34;5054191;28;20036;-37
2023/09/08 09:53:55;;;;;;;7.03;6.35;;;;;;;25.72;83.51;101661.47;5054584;28;20029;-37
2023/09/08 09:56:23;;;;;;;6.95;6.05;;;;;;;25.85;82.93;101660.63;5054736;28;20085;-37
2023/09/08 09:58:49;;;;;;;10.27;6.30;;;;;;;25.83;81.87;101660.16;5054709;28;20049;-37
2023/09/08 10:01:16;;;;;;;6.18;5.57;;;;;;;25.96;84.59;101659.25;5054250;28;20021;-37
2023/09/08 10:03:42;;;;;;;6.35;5.53;;;;;;;26.04;86.88;101649.38;5054792;28;20416;-37
2023/09/08 10:06:09;;;;;;;6.57;5.55;;;;;;;26.19;81.79;101648.97;5054973;28;20112;-37
2023/09/08 10:08:38;;;;;;;5.40;4.75;;;;;;;26.19;86.29;101652.56;5054737;28;20067;-37
2023/09/08 10:11:07;;;;;;;6.78;4.72;;;;;;;26.31;80.58;101654.75;5053890;28;20106;-37
2023/09/08 10:13:39;;;;;;;5.55;4.07;;;;;;;26.42;83.24;101649.75;5053834;28;20044;-37
2023/09/08 10:16:07;;;;;;;6.18;3.70;;;;;;;26.52;79.33;101651.47;5054604;28;20100;-38
2023/09/08 10:18:34;;;;;;;5.45;4.55;;;;;;;26.50;80.73;101650.94;5053679;28;20035;-37
2023/09/08 10:21:04;;;;;;;7.53;4.32;;;;;;;26.49;81.67;101643.78;5053945;28;20044;-37
2023/09/08 10:23:36;;;;;;;8.48;4.45;;;;;;;26.64;80.93;101644.16;5053927;28;20029;-37
2023/09/08 10:26:05;;;;;;;6.82;4.60;;;;;;;26.80;78.78;101643.75;5054453;28;20021;-37
2023/09/08 10:28:32;;;;;;;7.80;4.00;;;;;;;26.83;79.70;101649.44;5054159;28;20476;-37
2023/09/08 10:30:58;;;;;;;8.98;4.50;;;;;;;26.88;83.74;101648.47;5053514;28;20064;-37
2023/09/08 10:33:25;;;;;;;14.35;5.07;;;;;;;27.03;79.57;101659.13;5054130;28;20060;-37
2023/09/08 10:35:51;;;;;;;5.97;4.95;;;;;;;27.20;82.67;101652.84;5053753;28;20444;-37
2023/09/08 10:38:27;;;;;;;6.63;4.57;;;;;;;27.21;82.61;101643.38;5053996;28;20033;-37
2023/09/08 10:40:53;;;;;;;10.27;5.25;;;;;;;27.35;78.46;101646.81;5053324;28;20029;-37
2023/09/08 10:43:20;;;;;;;9.02;5.00;;;;;;;27.39;78.31;101649.78;5053659;28;20544;-37
2023/09/08 10:45:46;;;;;;;7.55;5.05;;;;;;;27.54;79.56;101652.06;5053283;28;20461;-37
2023/09/08 10:48:14;;;;;;;6.60;4.95;;;;;;;27.43;78.24;101628.53;5054223;28;20032;-36
2023/09/08 10:50:41;;;;;;;5.00;4.60;;;;;;;27.62;78.74;101647.63;5053816;28;20155;-36
2023/09/08 10:53:07;;;;;;;6.88;6.18;;;;;;;27.46;76.34;101638.97;5053682;28;20071;-37
2023/09/08 10:55:50;;;;;;;5.72;5.13;;;;;;;27.50;77.63;101637.19;5053354;28;20033;-37
2023/09/08 10:58:38;;;;;;;5.43;4.60;;;;;;;27.83;80.45;101637.53;5053632;28;20502;-37
2023/09/08 11:01:04;;;;;;;5.43;4.18;;;;;;;27.84;81.75;101639.16;5053111;28;20039;-37
2023/09/08 11:03:41;;;;;;;4.88;3.95;;;;;;;27.91;79.38;101639.47;5054253;28;20041;-37
2023/09/08 11:06:08;;;;;;;4.75;3.75;;;;;;;28.08;74.97;101643.38;5053392;28;20029;-37
2023/09/08 11:08:38;;;;;;;6.35;4.15;;;;;;;27.98;76.80;101623.13;5053380;28;20049;-37
2023/09/08 11:11:03;;;;;;;4.97;3.45;;;;;;;28.21;75.76;101645.97;5054483;28;20067;-37
2023/09/08 11:13:29;;;;;;;6.63;3.65;;;;;;;28.32;73.83;101626.13;5053920;28;20025;-37
2023/09/08 11:15:55;;;;;;;4.45;3.33;;;;;;;28.35;75.63;101633.81;5053548;28;20025;-37
2023/09/08 11:18:30;;;;;;;7.65;3.50;;;;;;;28.43;73.13;101633.81;5053551;28;20029;-37
2023/09/08 11:20:57;;;;;;;5.25;4.25;;;;;;;28.39;73.35;101641.16;5053228;28;20063;-37
2023/09/08 11:23:23;;;;;;;4.32;3.47;;;;;;;28.39;74.75;101637.56;5054136;28;20025;-37
2023/09/08 11:25:50;;;;;;;7.85;3.55;;;;;;;28.44;71.62;101635.44;5053224;28;20029;-37